Time;durP1;ratioP1;P1;durP2;ratioP2;P2;SDS_P1;SDS_P2;PMS_P1;PMS_P2;Temp;Humidity;BMP_temperature;BMP_pressure;BME280_temperature;BME280_humidity;BME280_pressure;Samples;Min_cycle;Max_cycle;Signal;HPM_P1;HPM_P2
2022/03/03 00:01:43;;;;;;;50.72;35.65;;;3.60;99.90;;;;;;6210674;23;20021;-73
2022/03/03 00:04:09;;;;;;;51.58;36.85;;;3.60;99.90;;;;;;6182940;23;20024;-72
2022/03/03 00:06:35;;;;;;;50.88;37.13;;;3.60;99.90;;;;;;6212068;23;20151;-72
2022/03/03 00:09:02;;;;;;;49.78;36.78;;;3.60;99.90;;;;;;6208741;23;20476;-72
2022/03/03 00:11:27;;;;;;;49.83;38.72;;;3.50;99.90;;;;;;6183142;23;20031;-72
2022/03/03 00:13:53;;;;;;;50.33;35.67;;;3.50;99.90;;;;;;6184285;23;20012;-73
2022/03/03 00:16:18;;;;;;;51.35;38.03;;;3.50;99.90;;;;;;6183702;23;20052;-72
2022/03/03 00:18:44;;;;;;;48.17;36.15;;;3.50;99.90;;;;;;6183353;23;20024;-72
2022/03/03 00:21:10;;;;;;;48.33;36.25;;;3.50;99.90;;;;;;6183390;23;20095;-72
2022/03/03 00:23:36;;;;;;;47.13;34.75;;;3.50;99.90;;;;;;6183421;23;20016;-73
2022/03/03 00:26:02;;;;;;;52.17;36.25;;;3.50;99.90;;;;;;6209438;23;20016;-72
2022/03/03 00:28:28;;;;;;;50.40;36.13;;;3.40;99.90;;;;;;6183776;23;20039;-72
2022/03/03 00:30:54;;;;;;;48.50;35.10;;;3.40;99.90;;;;;;6207721;23;20013;-73
2022/03/03 00:33:20;;;;;;;48.08;35.20;;;3.40;99.90;;;;;;6185052;23;20013;-73
2022/03/03 00:35:45;;;;;;;48.38;34.80;;;3.30;99.90;;;;;;6183487;23;20389;-73
2022/03/03 00:38:11;;;;;;;45.45;34.60;;;3.30;99.90;;;;;;6209660;23;20013;-72
2022/03/03 00:40:37;;;;;;;48.78;35.08;;;3.30;99.90;;;;;;6210881;23;20100;-73
2022/03/03 00:43:04;;;;;;;48.03;35.10;;;3.30;99.90;;;;;;6206684;23;20055;-73
2022/03/03 00:45:30;;;;;;;47.53;34.67;;;3.30;99.90;;;;;;6210015;23;20017;-73
2022/03/03 00:47:56;;;;;;;45.42;34.35;;;3.20;99.90;;;;;;6210145;23;20055;-73
2022/03/03 00:50:21;;;;;;;48.25;36.60;;;3.20;99.90;;;;;;6212132;23;20048;-72
2022/03/03 00:52:47;;;;;;;46.95;34.60;;;3.20;99.90;;;;;;6209984;23;20016;-73
2022/03/03 00:55:12;;;;;;;47.88;34.70;;;3.10;99.90;;;;;;6182997;23;20427;-72
2022/03/03 00:57:38;;;;;;;45.80;33.33;;;3.10;99.90;;;;;;6183665;23;20020;-72
2022/03/03 01:00:05;;;;;;;45.72;33.17;;;3.10;99.90;;;;;;6207814;23;20024;-73
2022/03/03 01:02:31;;;;;;;47.33;34.17;;;3.10;99.90;;;;;;6183151;23;20058;-73
2022/03/03 01:04:56;;;;;;;48.60;33.78;;;3.10;99.90;;;;;;6183372;23;20395;-72
2022/03/03 01:07:22;;;;;;;47.25;33.75;;;3.10;99.90;;;;;;6210062;23;20012;-72
2022/03/03 01:09:47;;;;;;;48.42;35.70;;;3.00;99.90;;;;;;6209243;23;20021;-72
2022/03/03 01:12:13;;;;;;;48.03;33.95;;;3.00;99.90;;;;;;6182565;23;20023;-72
2022/03/03 01:14:39;;;;;;;47.50;34.83;;;3.00;99.90;;;;;;6208588;23;20067;-73
2022/03/03 01:17:05;;;;;;;50.60;35.50;;;2.90;99.90;;;;;;6183664;23;20020;-73
2022/03/03 01:19:30;;;;;;;45.45;33.45;;;2.90;99.90;;;;;;6208106;23;20075;-72
2022/03/03 01:21:56;;;;;;;45.05;33.95;;;2.90;99.90;;;;;;6182203;23;20016;-73
2022/03/03 01:24:22;;;;;;;46.70;33.15;;;2.90;99.90;;;;;;6210616;23;20016;-73
2022/03/03 01:26:48;;;;;;;48.05;34.80;;;2.90;99.90;;;;;;6182371;23;20025;-73
2022/03/03 01:29:13;;;;;;;46.42;34.65;;;2.90;99.90;;;;;;6209805;23;20405;-72
2022/03/03 01:31:39;;;;;;;47.55;33.58;;;2.80;99.90;;;;;;6210116;23;20020;-72
2022/03/03 01:34:06;;;;;;;47.60;33.95;;;2.80;99.90;;;;;;6208557;23;20021;-73
2022/03/03 01:36:33;;;;;;;45.30;32.88;;;2.80;99.90;;;;;;6210332;23;20017;-73
2022/03/03 01:38:58;;;;;;;47.30;33.08;;;2.80;99.90;;;;;;6182467;23;20021;-72
2022/03/03 01:41:24;;;;;;;46.67;33.97;;;2.70;99.90;;;;;;6210081;23;20089;-72
2022/03/03 01:56:02;;;;;;;44.35;32.90;;;2.60;99.90;;;;;;6208969;23;20459;-73
2022/03/03 01:58:28;;;;;;;48.92;35.33;;;2.60;99.90;;;;;;6180922;23;20396;-72
2022/03/03 02:00:53;;;;;;;47.17;34.08;;;2.50;99.90;;;;;;6182678;23;20024;-72
2022/03/03 02:03:20;;;;;;;46.97;33.42;;;2.50;99.90;;;;;;6210246;23;20440;-72
2022/03/03 02:05:45;;;;;;;46.97;33.72;;;2.50;99.90;;;;;;6183353;23;20135;-72
2022/03/03 02:08:13;;;;;;;47.42;33.47;;;2.50;99.90;;;;;;6208768;23;20040;-72
2022/03/03 02:10:39;;;;;;;47.92;31.95;;;2.50;99.90;;;;;;6209412;23;20027;-72
2022/03/03 02:13:05;;;;;;;44.10;32.65;;;2.50;99.90;;;;;;6207956;23;20012;-72
2022/03/03 02:15:31;;;;;;;40.67;32.00;;;2.50;99.90;;;;;;6183803;23;20028;-72
2022/03/03 02:17:57;;;;;;;43.58;32.70;;;2.40;99.90;;;;;;6181492;23;20017;-73
2022/03/03 02:20:24;;;;;;;45.47;33.33;;;2.50;99.90;;;;;;6209624;23;20115;-72
2022/03/03 02:22:51;;;;;;;43.83;31.77;;;2.40;99.90;;;;;;6182178;23;20016;-73
2022/03/03 02:25:17;;;;;;;46.45;33.25;;;2.50;99.90;;;;;;6183923;23;20066;-73
2022/03/03 02:27:44;;;;;;;42.80;32.20;;;2.50;99.90;;;;;;6208195;23;20428;-72
2022/03/03 02:30:11;;;;;;;45.20;32.97;;;2.40;99.90;;;;;;6181497;23;20020;-72
2022/03/03 02:32:37;;;;;;;43.45;31.30;;;2.50;99.90;;;;;;6210258;23;20040;-73
2022/03/03 02:35:04;;;;;;;40.92;30.90;;;2.50;99.90;;;;;;6210181;23;20028;-73
2022/03/03 02:37:38;;;;;;;42.45;31.10;;;2.40;99.90;;;;;;6209511;23;20044;-72
2022/03/03 02:40:07;;;;;;;41.80;32.15;;;2.40;99.90;;;;;;6182493;23;20013;-71
2022/03/03 02:42:33;;;;;;;44.08;31.75;;;2.40;99.90;;;;;;6210522;23;20460;-72
2022/03/03 02:44:59;;;;;;;41.08;30.98;;;2.30;99.90;;;;;;6208112;23;20028;-72
2022/03/03 02:47:24;;;;;;;43.03;31.45;;;2.30;99.90;;;;;;6180949;23;20070;-72
2022/03/03 02:49:50;;;;;;;41.65;31.05;;;2.30;99.90;;;;;;6182462;23;20021;-72
2022/03/03 02:52:15;;;;;;;46.13;32.88;;;2.30;99.90;;;;;;6182975;23;20032;-73
2022/03/03 02:54:41;;;;;;;42.45;31.38;;;2.30;99.90;;;;;;6183694;23;20027;-72
2022/03/03 02:59:52;;;;;;;43.75;32.85;;;2.30;99.90;;;;;;6182359;23;20071;-72
2022/03/03 03:02:17;;;;;;;39.78;30.83;;;2.30;99.90;;;;;;6210556;23;20048;-72
2022/03/03 03:04:43;;;;;;;41.35;30.70;;;2.30;99.90;;;;;;6211001;23;20021;-72
2022/03/03 03:07:09;;;;;;;43.25;31.98;;;2.30;99.90;;;;;;6209724;23;20407;-72
2022/03/03 03:09:34;;;;;;;43.95;32.03;;;2.30;99.90;;;;;;6211313;23;20012;-72
2022/03/03 03:12:00;;;;;;;38.63;30.35;;;2.20;99.90;;;;;;6209882;23;20055;-73
2022/03/03 03:14:26;;;;;;;43.10;31.33;;;2.20;99.90;;;;;;6184092;23;20020;-73
2022/03/03 03:16:52;;;;;;;44.25;32.53;;;2.20;99.90;;;;;;6183231;23;20021;-73
2022/03/03 03:19:17;;;;;;;41.30;31.35;;;2.20;99.90;;;;;;6210406;23;20009;-73
2022/03/03 03:21:43;;;;;;;41.72;30.50;;;2.20;99.90;;;;;;6211927;23;20020;-72
2022/03/03 03:24:08;;;;;;;42.22;30.98;;;2.10;99.90;;;;;;6183942;23;20017;-73
2022/03/03 03:26:34;;;;;;;43.65;31.80;;;2.20;99.90;;;;;;6182507;23;20265;-72
2022/03/03 03:29:00;;;;;;;42.92;31.27;;;2.10;99.90;;;;;;6210855;23;20027;-73
2022/03/03 03:31:27;;;;;;;41.20;31.88;;;2.20;99.90;;;;;;6184509;23;20025;-73
2022/03/03 03:33:53;;;;;;;44.13;30.98;;;2.20;99.90;;;;;;6210759;23;20016;-72
2022/03/03 03:36:19;;;;;;;44.10;30.77;;;2.10;99.90;;;;;;6185072;23;20027;-72
2022/03/03 03:38:45;;;;;;;40.83;32.00;;;2.10;99.90;;;;;;6182905;23;20028;-72
2022/03/03 03:41:12;;;;;;;40.75;30.35;;;2.10;99.90;;;;;;6209380;23;20013;-72
2022/03/03 03:43:37;;;;;;;40.53;31.48;;;2.00;99.90;;;;;;6209650;23;20437;-72
2022/03/03 03:46:03;;;;;;;42.38;30.73;;;2.00;99.90;;;;;;6211507;23;20023;-72
2022/03/03 03:48:29;;;;;;;41.40;30.15;;;2.00;99.90;;;;;;6184342;23;20090;-72
2022/03/03 03:50:55;;;;;;;40.90;31.60;;;2.00;99.90;;;;;;6210755;23;20565;-72
2022/03/03 03:53:20;;;;;;;40.63;29.98;;;2.00;99.90;;;;;;6210564;23;20092;-72
2022/03/03 03:55:46;;;;;;;42.50;31.15;;;1.90;99.90;;;;;;6183059;23;20465;-72
2022/03/03 03:58:11;;;;;;;41.80;31.13;;;2.00;99.90;;;;;;6209685;23;20016;-72
2022/03/03 04:00:37;;;;;;;41.10;30.45;;;1.90;99.90;;;;;;6211291;23;20095;-73
2022/03/03 04:03:03;;;;;;;40.08;30.60;;;1.90;99.90;;;;;;6208424;23;20013;-72
2022/03/03 04:05:29;;;;;;;40.60;29.80;;;1.80;99.90;;;;;;6183953;23;20027;-72
2022/03/03 04:07:54;;;;;;;38.60;30.17;;;1.80;99.90;;;;;;6209816;23;20020;-72
2022/03/03 04:10:20;;;;;;;42.60;30.30;;;1.80;99.90;;;;;;6184075;23;20044;-72
2022/03/03 04:12:46;;;;;;;41.28;29.77;;;1.80;99.90;;;;;;6181773;23;20031;-73
2022/03/03 04:15:12;;;;;;;39.47;30.25;;;1.80;99.90;;;;;;6210154;23;20147;-73
2022/03/03 04:17:37;;;;;;;42.05;30.38;;;1.80;99.90;;;;;;6184363;23;20016;-72
2022/03/03 04:20:05;;;;;;;41.58;30.67;;;1.80;99.90;;;;;;6211167;23;20065;-73
2022/03/03 04:22:30;;;;;;;43.15;29.15;;;1.80;99.90;;;;;;6182221;23;20013;-73
2022/03/03 04:24:56;;;;;;;41.25;29.70;;;1.80;99.90;;;;;;6183560;23;20082;-73
2022/03/03 04:27:22;;;;;;;39.38;30.00;;;1.80;99.90;;;;;;6211696;23;20467;-73
2022/03/03 04:29:47;;;;;;;38.60;30.80;;;1.80;99.90;;;;;;6208496;23;20091;-73
2022/03/03 04:32:13;;;;;;;42.17;30.77;;;1.80;99.90;;;;;;6184946;23;20389;-71
2022/03/03 04:34:39;;;;;;;38.03;29.48;;;1.70;99.90;;;;;;6210783;23;20018;-72
2022/03/03 04:37:04;;;;;;;41.08;29.83;;;1.80;99.90;;;;;;6208609;23;20056;-75
2022/03/03 04:39:30;;;;;;;39.63;29.00;;;1.70;99.90;;;;;;6211555;23;20024;-76
2022/03/03 04:41:58;;;;;;;37.67;29.27;;;1.70;99.90;;;;;;6209440;23;20012;-76
2022/03/03 04:44:23;;;;;;;38.83;30.17;;;1.70;99.90;;;;;;6183130;23;20348;-76
2022/03/03 04:46:49;;;;;;;37.78;29.05;;;1.70;99.90;;;;;;6209171;23;20099;-76
2022/03/03 04:49:15;;;;;;;38.13;28.25;;;1.70;99.90;;;;;;6210705;23;20074;-76
2022/03/03 04:51:40;;;;;;;37.95;29.27;;;1.60;99.90;;;;;;6209641;23;20031;-76
2022/03/03 04:54:09;;;;;;;37.45;28.90;;;1.60;99.90;;;;;;6208202;23;20020;-75
2022/03/03 04:56:36;;;;;;;40.22;29.15;;;1.60;99.90;;;;;;6211019;23;20048;-76
2022/03/03 04:59:03;;;;;;;35.75;28.25;;;1.50;99.90;;;;;;6209456;23;20435;-76
2022/03/03 05:01:28;;;;;;;36.50;28.42;;;1.50;99.90;;;;;;6208905;23;20063;-76
2022/03/03 05:03:54;;;;;;;37.88;28.90;;;1.50;99.90;;;;;;6182849;23;20012;-76
2022/03/03 05:06:19;;;;;;;38.88;28.83;;;1.50;99.90;;;;;;6182448;23;20020;-76
2022/03/03 05:08:45;;;;;;;37.78;28.63;;;1.40;99.90;;;;;;6210939;23;20034;-75
2022/03/03 05:11:11;;;;;;;36.75;28.02;;;1.50;99.90;;;;;;6209795;23;20096;-77
2022/03/03 05:13:37;;;;;;;38.20;28.98;;;1.50;99.90;;;;;;6209983;23;20605;-77
2022/03/03 05:16:03;;;;;;;37.97;27.55;;;1.40;99.90;;;;;;6209786;23;20021;-77
2022/03/03 05:18:30;;;;;;;37.35;27.20;;;1.50;99.90;;;;;;6209113;23;20460;-76
2022/03/03 05:20:56;;;;;;;39.03;27.98;;;1.40;99.90;;;;;;6209988;23;20104;-76
2022/03/03 05:23:22;;;;;;;34.88;27.70;;;1.50;99.90;;;;;;6210886;23;20052;-76
2022/03/03 05:25:47;;;;;;;38.63;28.70;;;1.50;99.90;;;;;;6207440;23;20036;-76
2022/03/03 05:28:13;;;;;;;38.60;28.40;;;1.50;99.90;;;;;;6183916;23;20017;-76
2022/03/03 05:30:39;;;;;;;38.05;27.33;;;1.50;99.90;;;;;;6209948;23;20329;-76
2022/03/03 05:33:05;;;;;;;35.88;27.42;;;1.50;99.90;;;;;;6180613;23;20024;-76
2022/03/03 05:35:30;;;;;;;34.42;27.50;;;1.50;99.90;;;;;;6208873;23;20023;-76
2022/03/03 05:37:56;;;;;;;39.60;28.27;;;1.50;99.90;;;;;;6210586;23;20328;-76
2022/03/03 05:40:22;;;;;;;37.85;28.17;;;1.40;99.90;;;;;;6210283;23;20052;-76
2022/03/03 05:42:47;;;;;;;38.22;27.77;;;1.40;99.90;;;;;;6172630;23;20084;-76
2022/03/03 05:45:14;;;;;;;35.53;27.05;;;1.40;99.90;;;;;;6152788;23;20028;-76
2022/03/03 05:47:41;;;;;;;37.42;28.55;;;1.40;99.90;;;;;;6179597;23;20032;-76
2022/03/03 05:50:07;;;;;;;36.72;27.75;;;1.40;99.90;;;;;;6179414;23;20013;-76
2022/03/03 05:52:33;;;;;;;38.03;28.30;;;1.40;99.90;;;;;;6153884;23;20024;-77
2022/03/03 05:54:59;;;;;;;40.22;29.30;;;1.30;99.90;;;;;;6150489;23;20021;-77
2022/03/03 05:57:38;;;;;;;38.60;27.80;;;1.30;99.90;;;;;;6180439;23;20059;-76
2022/03/03 06:00:10;;;;;;;36.13;27.25;;;1.30;99.90;;;;;;6179158;23;20024;-76
2022/03/03 06:02:36;;;;;;;34.70;27.35;;;1.30;99.90;;;;;;6152169;23;20028;-77
2022/03/03 06:05:03;;;;;;;35.10;27.52;;;1.30;99.90;;;;;;6178526;23;20488;-76
2022/03/03 06:07:29;;;;;;;36.95;28.17;;;1.30;99.90;;;;;;6152482;23;20427;-76
2022/03/03 06:09:56;;;;;;;35.78;27.55;;;1.30;99.90;;;;;;6152599;23;20096;-76
2022/03/03 06:12:40;;;;;;;37.33;26.08;;;1.30;99.90;;;;;;6179868;23;20028;-76
2022/03/03 06:15:06;;;;;;;36.38;27.17;;;1.30;99.90;;;;;;6178229;23;20427;-77
2022/03/03 06:17:34;;;;;;;36.45;28.08;;;1.30;99.90;;;;;;6153652;23;20075;-76
2022/03/03 06:20:01;;;;;;;38.35;29.15;;;1.30;99.90;;;;;;6179625;23;20088;-77
2022/03/03 06:22:27;;;;;;;38.65;28.85;;;1.30;99.90;;;;;;6153346;23;20828;-77
2022/03/03 06:24:53;;;;;;;38.25;28.70;;;1.30;99.90;;;;;;6154657;23;20021;-75
2022/03/03 06:27:19;;;;;;;38.28;29.15;;;1.30;99.90;;;;;;6154363;23;20523;-76
2022/03/03 06:29:44;;;;;;;37.15;29.88;;;1.30;99.90;;;;;;6178279;23;20205;-76
2022/03/03 06:32:11;;;;;;;40.80;30.73;;;1.30;99.90;;;;;;6152672;23;20463;-76
2022/03/03 06:34:37;;;;;;;36.70;28.05;;;1.30;99.90;;;;;;6153738;23;20021;-76
2022/03/03 06:37:03;;;;;;;36.40;28.33;;;1.30;99.90;;;;;;6179892;23;20025;-76
2022/03/03 06:39:29;;;;;;;39.92;28.45;;;1.30;99.90;;;;;;6181469;23;20453;-77
2022/03/03 06:41:55;;;;;;;35.80;29.33;;;1.30;99.90;;;;;;6179214;23;20024;-76
2022/03/03 06:44:21;;;;;;;36.10;28.05;;;1.40;99.90;;;;;;6154896;23;20408;-73
2022/03/03 06:46:47;;;;;;;35.03;26.92;;;1.50;99.90;;;;;;6181849;23;20103;-78
2022/03/03 06:49:13;;;;;;;36.00;26.90;;;1.60;99.90;;;;;;6176959;23;20512;-78
2022/03/03 06:51:46;;;;;;;36.08;27.52;;;1.60;99.90;;;;;;6154683;23;20465;-78
2022/03/03 06:54:14;;;;;;;34.38;26.23;;;1.50;99.90;;;;;;6181982;23;20071;-78
2022/03/03 06:56:46;;;;;;;33.88;27.52;;;1.60;99.90;;;;;;6181584;23;20449;-77
2022/03/03 06:59:18;;;;;;;34.80;26.50;;;1.50;99.90;;;;;;6153115;23;20072;-74
2022/03/03 07:01:46;;;;;;;34.78;27.08;;;1.60;99.90;;;;;;6154095;23;20017;-75
2022/03/03 07:04:13;;;;;;;34.97;27.25;;;1.60;99.90;;;;;;6154246;23;20017;-74
2022/03/03 07:06:39;;;;;;;38.17;26.43;;;1.70;99.90;;;;;;6180901;23;20044;-74
2022/03/03 07:09:04;;;;;;;34.03;26.98;;;1.70;99.90;;;;;;6180110;23;20025;-75
2022/03/03 07:11:31;;;;;;;34.55;27.35;;;1.70;99.90;;;;;;6152905;23;20517;-74
2022/03/03 07:13:58;;;;;;;34.47;27.67;;;1.80;99.90;;;;;;6179423;23;20023;-75
2022/03/03 07:16:39;;;;;;;36.00;27.13;;;1.90;99.90;;;;;;6179888;23;20063;-74
2022/03/03 07:19:14;;;;;;;35.03;28.33;;;1.90;99.90;;;;;;6177317;23;20429;-75
2022/03/03 07:22:06;;;;;;;36.03;26.63;;;1.90;99.90;;;;;;6153882;23;20409;-75
2022/03/03 07:24:34;;;;;;;33.58;26.52;;;2.00;99.90;;;;;;6152961;23;20107;-74
2022/03/03 07:27:04;;;;;;;37.58;26.40;;;2.00;99.90;;;;;;6151924;23;20521;-74
2022/03/03 07:29:32;;;;;;;35.53;26.60;;;2.00;99.90;;;;;;6153611;23;20100;-75
2022/03/03 07:32:04;;;;;;;34.08;27.38;;;2.10;99.90;;;;;;6180475;23;20075;-75
2022/03/03 07:34:33;;;;;;;32.17;26.55;;;2.10;99.90;;;;;;6178671;23;20083;-74
2022/03/03 07:37:08;;;;;;;35.97;25.65;;;2.10;99.90;;;;;;6153264;23;20096;-75
2022/03/03 07:39:44;;;;;;;36.00;27.08;;;2.20;99.90;;;;;;6179587;23;20043;-74
2022/03/03 07:42:17;;;;;;;35.03;27.33;;;2.20;99.90;;;;;;6154454;23;20109;-75
2022/03/03 07:44:43;;;;;;;36.80;27.50;;;2.30;99.90;;;;;;6182351;23;20024;-74
2022/03/03 07:47:10;;;;;;;33.63;27.20;;;2.30;99.90;;;;;;6183312;23;20023;-75
2022/03/03 07:49:35;;;;;;;35.30;27.35;;;2.40;99.90;;;;;;6211397;23;20404;-74
2022/03/03 07:52:03;;;;;;;33.53;26.48;;;2.40;99.90;;;;;;6182206;23;20016;-75
2022/03/03 07:54:29;;;;;;;36.08;27.58;;;2.50;99.90;;;;;;6182484;23;20023;-75
2022/03/03 07:56:57;;;;;;;32.55;26.23;;;2.50;99.90;;;;;;6183102;23;20021;-75
2022/03/03 07:59:35;;;;;;;35.40;27.45;;;2.60;99.90;;;;;;6183540;23;20326;-75
2022/03/03 08:02:04;;;;;;;33.13;27.17;;;2.70;99.90;;;;;;6207953;23;20016;-75
2022/03/03 08:04:32;;;;;;;35.47;27.85;;;2.70;99.90;;;;;;6211060;23;20023;-74
2022/03/03 08:07:09;;;;;;;35.08;28.75;;;2.80;99.90;;;;;;6207435;23;20578;-75
2022/03/03 08:09:37;;;;;;;36.17;27.10;;;2.80;99.90;;;;;;6209392;23;20016;-74
2022/03/03 08:12:05;;;;;;;34.67;27.38;;;2.80;99.90;;;;;;6182383;23;20692;-74
2022/03/03 08:14:32;;;;;;;36.78;27.92;;;2.90;99.90;;;;;;6182231;23;20017;-74
2022/03/03 08:16:58;;;;;;;32.40;27.10;;;2.90;99.90;;;;;;6181580;23;20046;-75
2022/03/03 08:19:24;;;;;;;39.92;28.95;;;3.00;99.90;;;;;;6183977;23;20352;-77
2022/03/03 08:21:50;;;;;;;35.08;26.67;;;3.00;99.90;;;;;;6181638;23;20377;-74
2022/03/03 08:24:16;;;;;;;33.35;26.85;;;3.10;99.90;;;;;;6210122;23;20055;-73
2022/03/03 08:26:43;;;;;;;34.00;28.35;;;3.20;99.90;;;;;;6209626;23;20083;-74
2022/03/03 08:29:10;;;;;;;32.10;27.13;;;3.20;99.90;;;;;;6208647;23;20021;-78
2022/03/03 08:31:39;;;;;;;34.92;29.45;;;3.30;99.90;;;;;;6208977;23;20021;-79
2022/03/03 08:34:18;;;;;;;34.58;27.95;;;3.30;99.90;;;;;;6182123;23;20016;-76
2022/03/03 08:36:49;;;;;;;36.15;28.88;;;3.40;99.90;;;;;;6182684;23;20024;-77
2022/03/03 08:39:16;;;;;;;37.03;28.33;;;3.50;99.90;;;;;;6183231;23;20059;-78
2022/03/03 08:41:43;;;;;;;36.58;29.48;;;3.60;99.90;;;;;;6182964;23;20021;-76
2022/03/03 08:44:10;;;;;;;33.90;28.10;;;3.70;99.90;;;;;;6208771;23;20130;-75
2022/03/03 08:46:38;;;;;;;34.38;29.08;;;3.70;99.90;;;;;;6183563;23;20604;-74
2022/03/03 08:49:07;;;;;;;33.63;27.73;;;3.70;99.90;;;;;;6209360;23;20040;-75
2022/03/03 08:51:33;;;;;;;33.25;29.25;;;3.80;99.90;;;;;;6182948;23;20610;-74
2022/03/03 08:53:59;;;;;;;32.70;28.00;;;3.90;99.90;;;;;;6209332;23;20100;-74
2022/03/03 08:56:26;;;;;;;34.80;31.00;;;4.00;99.90;;;;;;6182856;23;20012;-75
2022/03/03 08:58:53;;;;;;;37.40;29.77;;;4.00;99.90;;;;;;6182129;23;20027;-75
2022/03/03 09:01:20;;;;;;;35.30;29.55;;;4.10;99.90;;;;;;6210806;23;20017;-76
2022/03/03 09:03:45;;;;;;;35.05;28.98;;;4.30;99.90;;;;;;6208069;23;20012;-77
2022/03/03 09:06:18;;;;;;;33.97;28.60;;;4.30;99.90;;;;;;6208607;23;20036;-77
2022/03/03 09:08:44;;;;;;;32.78;27.42;;;4.40;99.90;;;;;;6209424;23;20017;-78
2022/03/03 09:11:10;;;;;;;31.45;26.38;;;4.50;99.90;;;;;;6208185;23;20521;-75
2022/03/03 09:13:36;;;;;;;35.05;28.67;;;4.60;99.90;;;;;;6182014;23;20074;-80
2022/03/03 09:16:02;;;;;;;34.10;26.88;;;4.70;99.90;;;;;;6181997;23;20020;-82
2022/03/03 09:18:28;;;;;;;30.30;25.73;;;4.70;99.90;;;;;;6209063;23;20020;-79
2022/03/03 09:20:54;;;;;;;31.70;26.48;;;4.80;99.90;;;;;;6181947;23;20016;-79
2022/03/03 09:23:20;;;;;;;29.45;25.88;;;4.90;99.90;;;;;;6181797;23;20507;-79
2022/03/03 09:25:45;;;;;;;29.23;24.90;;;4.90;99.90;;;;;;6181608;23;20469;-77
2022/03/03 09:28:11;;;;;;;32.63;25.98;;;5.00;98.90;;;;;;6182755;23;20036;-76
2022/03/03 09:30:37;;;;;;;27.58;24.58;;;5.10;98.80;;;;;;6183855;23;20027;-79
2022/03/03 09:33:04;;;;;;;30.33;25.50;;;5.20;98.70;;;;;;6208703;23;20027;-74
2022/03/03 09:35:30;;;;;;;31.65;25.60;;;5.20;97.60;;;;;;6211271;23;20036;-85
2022/03/03 09:37:56;;;;;;;28.85;24.73;;;5.30;97.20;;;;;;6209945;23;20024;-81
2022/03/03 09:40:22;;;;;;;28.23;24.75;;;5.30;98.90;;;;;;6210143;23;20025;-82
2022/03/03 09:43:00;;;;;;;28.17;24.48;;;5.40;96.90;;;;;;6172037;23;20554;-82
2022/03/03 09:45:27;;;;;;;29.15;24.55;;;5.50;94.80;;;;;;6154412;23;20036;-81
2022/03/03 09:47:54;;;;;;;99.57;28.55;;;5.50;93.80;;;;;;6152868;23;20620;-84
2022/03/03 09:50:20;;;;;;;139.25;30.00;;;5.60;94.00;;;;;;6180692;23;20441;-78
2022/03/03 09:52:45;;;;;;;28.52;24.05;;;5.60;93.90;;;;;;6179647;23;20025;-78
2022/03/03 09:55:11;;;;;;;43.15;24.33;;;5.70;92.20;;;;;;6180090;23;20057;-77
2022/03/03 09:57:38;;;;;;;35.88;23.75;;;5.80;93.70;;;;;;6180816;23;20100;-78
2022/03/03 10:00:09;;;;;;;61.15;24.92;;;5.80;92.30;;;;;;6179277;23;20021;-82
2022/03/03 10:02:58;;;;;;;43.58;23.48;;;5.90;91.00;;;;;;6154078;23;20020;-82
2022/03/03 10:05:50;;;;;;;25.48;22.02;;;6.00;91.30;;;;;;6138775;23;20071;-75
2022/03/03 10:08:21;;;;;;;26.40;22.70;;;6.10;91.90;;;;;;6162484;23;20366;-81
2022/03/03 10:10:49;;;;;;;25.10;22.40;;;6.10;90.70;;;;;;6178970;23;20029;-80
2022/03/03 10:13:18;;;;;;;29.42;23.00;;;6.20;90.40;;;;;;6153099;23;20021;-81
2022/03/03 10:15:50;;;;;;;27.48;23.38;;;6.20;88.70;;;;;;6152682;23;20437;-77
2022/03/03 10:18:17;;;;;;;26.15;22.20;;;6.30;88.30;;;;;;6179230;23;20369;-79
2022/03/03 10:20:52;;;;;;;26.17;21.65;;;6.40;86.60;;;;;;6152110;23;20021;-80
2022/03/03 10:23:23;;;;;;;25.65;21.98;;;6.40;82.60;;;;;;6177748;23;20013;-79
2022/03/03 10:25:52;;;;;;;24.25;21.77;;;6.50;83.50;;;;;;6152259;23;20028;-78
2022/03/03 10:28:20;;;;;;;26.67;21.83;;;6.50;79.90;;;;;;6179995;23;20083;-87
2022/03/03 10:30:57;;;;;;;24.75;21.70;;;6.60;82.30;;;;;;6179077;23;20021;-78
2022/03/03 10:33:47;;;;;;;25.00;21.65;;;6.70;81.20;;;;;;6180006;23;20059;-81
2022/03/03 10:36:15;;;;;;;25.48;21.58;;;6.80;82.60;;;;;;6139502;23;20100;-80
2022/03/03 10:38:47;;;;;;;;;;;6.80;81.60;;;;;;6178782;23;20028;-81
2022/03/03 10:41:38;;;;;;;25.15;21.70;;;6.90;76.00;;;;;;6151421;23;19967;-76
2022/03/03 10:44:07;;;;;;;25.33;22.15;;;7.00;81.00;;;;;;6152383;23;20449;-77
2022/03/03 10:46:34;;;;;;;37.70;21.08;;;7.10;86.20;;;;;;6179578;23;20021;-77
2022/03/03 10:49:16;;;;;;;58.83;24.13;;;7.10;80.80;;;;;;6179161;23;20017;-76
2022/03/03 10:51:41;;;;;;;29.65;20.67;;;7.30;76.70;;;;;;6180822;23;20059;-77
2022/03/03 10:54:08;;;;;;;43.83;21.58;;;7.30;74.80;;;;;;6153197;23;20064;-78
2022/03/03 10:56:42;;;;;;;23.70;20.48;;;7.40;73.60;;;;;;6179793;23;20068;-75
2022/03/03 10:59:09;;;;;;;22.92;20.35;;;7.40;71.90;;;;;;6179774;23;20028;-76
2022/03/03 11:01:34;;;;;;;20.05;17.88;;;7.50;72.10;;;;;;6180527;23;20021;-76
2022/03/03 11:04:00;;;;;;;21.27;18.88;;;7.50;71.20;;;;;;6151971;23;20059;-78
2022/03/03 11:06:29;;;;;;;22.85;19.45;;;7.60;71.20;;;;;;6152377;23;20021;-83
2022/03/03 11:08:57;;;;;;;21.63;19.30;;;7.60;70.20;;;;;;6173780;23;20041;-73
2022/03/03 11:11:24;;;;;;;23.00;20.60;;;7.70;69.80;;;;;;6178318;23;20024;-75
2022/03/03 11:13:51;;;;;;;24.23;20.40;;;7.80;70.30;;;;;;6152009;23;20088;-73
2022/03/03 11:16:18;;;;;;;26.55;19.45;;;7.90;72.20;;;;;;6175937;23;20032;-86
2022/03/03 11:18:44;;;;;;;22.80;20.25;;;8.00;71.20;;;;;;6152021;23;20031;-82
2022/03/03 11:21:12;;;;;;;25.42;20.77;;;8.00;70.80;;;;;;6180292;23;20021;-79
2022/03/03 11:23:53;;;;;;;21.38;19.15;;;8.10;71.00;;;;;;6181911;23;20302;-79
2022/03/03 11:26:25;;;;;;;22.05;17.98;;;8.20;70.10;;;;;;6181105;23;20100;-74
2022/03/03 11:29:13;;;;;;;22.13;18.17;;;8.30;68.90;;;;;;6181057;23;20017;-75
2022/03/03 11:31:40;;;;;;;21.75;18.50;;;8.40;67.20;;;;;;6181099;23;20017;-75
2022/03/03 11:34:26;;;;;;;20.38;17.45;;;8.50;67.90;;;;;;6154703;23;20021;-75
2022/03/03 11:37:05;;;;;;;21.88;17.80;;;8.50;65.00;;;;;;6180869;23;20029;-79
2022/03/03 11:39:37;;;;;;;21.05;17.30;;;8.60;65.70;;;;;;6155241;23;20076;-77
2022/03/03 11:42:26;;;;;;;21.17;17.05;;;8.60;66.10;;;;;;6181158;23;20021;-77
2022/03/03 11:45:31;;;;;;;22.33;17.75;;;8.70;64.10;;;;;;6181664;23;20016;-75
2022/03/03 11:48:10;;;;;;;22.15;17.35;;;8.80;63.80;;;;;;6197893;23;20047;-76
2022/03/03 11:50:36;;;;;;;23.85;18.00;;;8.80;64.40;;;;;;6211603;23;20024;-76
2022/03/03 11:53:02;;;;;;;24.48;18.42;;;8.90;66.90;;;;;;6183351;23;20016;-75
2022/03/03 11:55:34;;;;;;;21.83;19.42;;;9.00;67.80;;;;;;6212363;23;20464;-76
2022/03/03 11:58:16;;;;;;;24.48;19.88;;;9.10;66.80;;;;;;6184910;23;20074;-76
2022/03/03 12:00:59;;;;;;;22.88;18.98;;;9.10;66.20;;;;;;6211022;23;20092;-76
2022/03/03 12:03:25;;;;;;;20.52;18.33;;;9.10;66.10;;;;;;6184148;23;20071;-80
2022/03/03 12:06:14;;;;;;;20.60;18.40;;;9.10;64.90;;;;;;6208871;23;20031;-73
2022/03/03 12:08:41;;;;;;;22.85;18.98;;;9.20;63.70;;;;;;6182565;23;20048;-73
2022/03/03 12:11:16;;;;;;;25.83;18.60;;;9.20;65.20;;;;;;6180515;23;20031;-72
2022/03/03 12:13:49;;;;;;;21.75;18.20;;;9.20;63.70;;;;;;6209517;23;20618;-77
2022/03/03 12:16:26;;;;;;;20.95;17.55;;;9.20;63.30;;;;;;6180530;23;20021;-71
2022/03/03 12:18:54;;;;;;;21.73;17.90;;;9.20;62.20;;;;;;6179897;23;20028;-71
2022/03/03 12:21:30;;;;;;;19.25;17.10;;;9.20;62.60;;;;;;6206518;23;20337;-72
2022/03/03 12:24:28;;;;;;;19.20;17.20;;;9.20;62.70;;;;;;6208345;23;20051;-71
2022/03/03 12:26:56;;;;;;;21.80;16.75;;;9.20;61.80;;;;;;6182644;23;20074;-74
2022/03/03 12:29:30;;;;;;;19.75;17.45;;;9.30;64.20;;;;;;6179474;23;20337;-71
2022/03/03 12:31:56;;;;;;;20.17;16.60;;;9.30;63.10;;;;;;6207909;23;20024;-71
2022/03/03 12:34:22;;;;;;;18.58;16.02;;;9.40;62.70;;;;;;6211226;23;20020;-71
2022/03/03 12:36:54;;;;;;;19.60;17.50;;;9.40;62.30;;;;;;6204242;23;20380;-71
2022/03/03 12:39:20;;;;;;;19.30;17.25;;;9.40;61.20;;;;;;6183615;23;20028;-71
2022/03/03 12:41:46;;;;;;;19.15;16.08;;;9.40;61.80;;;;;;6210907;23;20021;-71
2022/03/03 12:44:14;;;;;;;20.23;16.38;;;9.40;62.10;;;;;;6205133;23;20016;-72
2022/03/03 12:46:44;;;;;;;22.52;17.33;;;9.50;62.50;;;;;;6181384;23;20033;-71
2022/03/03 12:49:12;;;;;;;18.67;16.33;;;9.50;61.90;;;;;;6209911;23;20545;-72
2022/03/03 12:51:48;;;;;;;21.63;16.98;;;9.60;62.70;;;;;;6181556;23;20032;-75
2022/03/03 12:54:17;;;;;;;18.73;16.73;;;9.60;61.50;;;;;;6183659;23;20020;-76
2022/03/03 12:56:42;;;;;;;20.58;16.02;;;9.70;61.90;;;;;;6208271;23;20017;-76
2022/03/03 12:59:08;;;;;;;17.55;15.32;;;9.70;61.80;;;;;;6183612;23;20433;-74